sensor_id;sensor_type;location;lat;lon;timestamp;P1;durP1;ratioP1;P2;durP2;ratioP2
12892;SDS011;6514;48.606;9.222;2022-11-20T00:00:40;5.47;;;4.47;;
12892;SDS011;6514;48.606;9.222;2022-11-20T00:03:07;6.27;;;4.33;;
12892;SDS011;6514;48.606;9.222;2022-11-20T00:05:35;4.47;;;4.07;;
12892;SDS011;6514;48.606;9.222;2022-11-20T00:08:02;5.50;;;4.63;;
12892;SDS011;6514;48.606;9.222;2022-11-20T00:10:29;4.90;;;4.40;;
12892;SDS011;6514;48.606;9.222;2022-11-20T00:12:57;4.97;;;3.53;;
12892;SDS011;6514;48.606;9.222;2022-11-20T00:15:24;4.10;;;3.70;;
12892;SDS011;6514;48.606;9.222;2022-11-20T00:17:51;5.37;;;4.77;;
12892;SDS011;6514;48.606;9.222;2022-11-20T00:20:17;4.47;;;3.97;;
12892;SDS011;6514;48.606;9.222;2022-11-20T00:22:46;5.37;;;4.00;;
12892;SDS011;6514;48.606;9.222;2022-11-20T00:25:13;5.50;;;3.50;;
12892;SDS011;6514;48.606;9.222;2022-11-20T00:27:40;3.50;;;3.13;;
12892;SDS011;6514;48.606;9.222;2022-11-20T00:30:07;3.70;;;3.40;;
12892;SDS011;6514;48.606;9.222;2022-11-20T00:32:34;3.97;;;3.20;;
12892;SDS011;6514;48.606;9.222;2022-11-20T00:35:01;6.90;;;3.80;;
12892;SDS011;6514;48.606;9.222;2022-11-20T00:37:28;4.10;;;3.63;;
12892;SDS011;6514;48.606;9.222;2022-11-20T00:39:56;3.77;;;3.47;;
12892;SDS011;6514;48.606;9.222;2022-11-20T00:42:23;4.77;;;3.80;;
12892;SDS011;6514;48.606;9.222;2022-11-20T00:44:50;3.90;;;3.60;;
12892;SDS011;6514;48.606;9.222;2022-11-20T00:47:17;5.60;;;4.43;;
12892;SDS011;6514;48.606;9.222;2022-11-20T00:49:44;4.57;;;4.17;;
12892;SDS011;6514;48.606;9.222;2022-11-20T00:52:10;4.63;;;4.00;;
12892;SDS011;6514;48.606;9.222;2022-11-20T00:54:37;4.90;;;3.77;;
12892;SDS011;6514;48.606;9.222;2022-11-20T00:57:05;5.23;;;3.90;;
12892;SDS011;6514;48.606;9.222;2022-11-20T00:59:32;4.30;;;3.77;;
12892;SDS011;6514;48.606;9.222;2022-11-20T01:01:59;5.87;;;4.20;;
12892;SDS011;6514;48.606;9.222;2022-11-20T01:04:26;4.20;;;3.80;;
12892;SDS011;6514;48.606;9.222;2022-11-20T01:06:53;4.40;;;3.63;;
12892;SDS011;6514;48.606;9.222;2022-11-20T01:09:20;4.80;;;4.10;;
12892;SDS011;6514;48.606;9.222;2022-11-20T01:11:47;4.70;;;4.07;;
12892;SDS011;6514;48.606;9.222;2022-11-20T01:14:16;5.67;;;4.00;;
12892;SDS011;6514;48.606;9.222;2022-11-20T01:16:44;4.73;;;4.13;;
12892;SDS011;6514;48.606;9.222;2022-11-20T01:19:14;4.40;;;4.00;;
12892;SDS011;6514;48.606;9.222;2022-11-20T01:21:45;5.50;;;4.20;;
12892;SDS011;6514;48.606;9.222;2022-11-20T01:24:16;4.20;;;3.80;;
12892;SDS011;6514;48.606;9.222;2022-11-20T01:26:46;5.47;;;4.57;;
12892;SDS011;6514;48.606;9.222;2022-11-20T01:29:17;5.10;;;4.40;;
12892;SDS011;6514;48.606;9.222;2022-11-20T01:31:45;4.77;;;4.37;;
12892;SDS011;6514;48.606;9.222;2022-11-20T01:34:13;5.30;;;4.80;;
12892;SDS011;6514;48.606;9.222;2022-11-20T01:36:42;6.20;;;5.07;;
12892;SDS011;6514;48.606;9.222;2022-11-20T01:39:10;6.27;;;4.63;;
12892;SDS011;6514;48.606;9.222;2022-11-20T01:41:39;6.43;;;4.93;;
12892;SDS011;6514;48.606;9.222;2022-11-20T01:47:17;7.87;;;4.90;;
12892;SDS011;6514;48.606;9.222;2022-11-20T01:49:50;5.87;;;5.10;;
12892;SDS011;6514;48.606;9.222;2022-11-20T01:52:23;6.40;;;5.10;;
12892;SDS011;6514;48.606;9.222;2022-11-20T01:54:58;7.20;;;5.33;;
12892;SDS011;6514;48.606;9.222;2022-11-20T01:57:29;5.87;;;4.83;;
12892;SDS011;6514;48.606;9.222;2022-11-20T02:00:01;6.90;;;5.10;;
12892;SDS011;6514;48.606;9.222;2022-11-20T02:02:31;7.47;;;5.80;;
12892;SDS011;6514;48.606;9.222;2022-11-20T02:05:00;6.73;;;6.03;;
12892;SDS011;6514;48.606;9.222;2022-11-20T02:07:36;7.93;;;5.80;;
12892;SDS011;6514;48.606;9.222;2022-11-20T02:10:04;7.40;;;5.40;;
12892;SDS011;6514;48.606;9.222;2022-11-20T02:12:31;6.93;;;5.73;;
12892;SDS011;6514;48.606;9.222;2022-11-20T02:15:16;6.60;;;5.50;;
12892;SDS011;6514;48.606;9.222;2022-11-20T02:17:43;6.20;;;5.60;;
12892;SDS011;6514;48.606;9.222;2022-11-20T02:20:10;9.33;;;6.53;;
12892;SDS011;6514;48.606;9.222;2022-11-20T02:22:38;8.10;;;6.90;;
12892;SDS011;6514;48.606;9.222;2022-11-20T02:25:14;8.57;;;6.13;;
12892;SDS011;6514;48.606;9.222;2022-11-20T02:27:42;9.57;;;6.87;;
12892;SDS011;6514;48.606;9.222;2022-11-20T02:30:09;7.20;;;6.37;;
12892;SDS011;6514;48.606;9.222;2022-11-20T02:32:37;8.33;;;6.50;;
12892;SDS011;6514;48.606;9.222;2022-11-20T02:35:06;8.93;;;7.03;;
12892;SDS011;6514;48.606;9.222;2022-11-20T02:37:34;7.27;;;5.80;;
12892;SDS011;6514;48.606;9.222;2022-11-20T02:40:05;8.10;;;6.03;;
12892;SDS011;6514;48.606;9.222;2022-11-20T02:42:34;7.67;;;6.23;;
12892;SDS011;6514;48.606;9.222;2022-11-20T02:45:01;7.00;;;6.20;;
12892;SDS011;6514;48.606;9.222;2022-11-20T02:47:29;9.60;;;6.77;;
12892;SDS011;6514;48.606;9.222;2022-11-20T02:49:56;8.97;;;7.03;;
12892;SDS011;6514;48.606;9.222;2022-11-20T02:52:23;7.63;;;6.67;;
12892;SDS011;6514;48.606;9.222;2022-11-20T02:54:50;10.63;;;7.00;;
12892;SDS011;6514;48.606;9.222;2022-11-20T02:57:16;8.37;;;7.07;;
12892;SDS011;6514;48.606;9.222;2022-11-20T02:59:45;9.10;;;7.53;;
12892;SDS011;6514;48.606;9.222;2022-11-20T03:02:12;10.23;;;7.70;;
12892;SDS011;6514;48.606;9.222;2022-11-20T03:04:39;9.40;;;7.43;;
12892;SDS011;6514;48.606;9.222;2022-11-20T03:07:05;8.80;;;7.90;;
12892;SDS011;6514;48.606;9.222;2022-11-20T03:09:34;9.30;;;8.23;;
12892;SDS011;6514;48.606;9.222;2022-11-20T03:12:01;10.10;;;8.03;;
12892;SDS011;6514;48.606;9.222;2022-11-20T03:14:28;8.67;;;7.03;;
12892;SDS011;6514;48.606;9.222;2022-11-20T03:16:57;9.00;;;5.90;;
12892;SDS011;6514;48.606;9.222;2022-11-20T03:19:23;10.00;;;6.63;;
12892;SDS011;6514;48.606;9.222;2022-11-20T03:21:50;8.60;;;5.37;;
12892;SDS011;6514;48.606;9.222;2022-11-20T03:24:17;5.57;;;4.87;;
12892;SDS011;6514;48.606;9.222;2022-11-20T03:26:44;7.00;;;5.43;;
12892;SDS011;6514;48.606;9.222;2022-11-20T03:29:11;6.67;;;5.83;;
12892;SDS011;6514;48.606;9.222;2022-11-20T03:31:38;6.07;;;4.80;;
12892;SDS011;6514;48.606;9.222;2022-11-20T03:34:07;7.67;;;4.90;;
12892;SDS011;6514;48.606;9.222;2022-11-20T03:36:36;7.27;;;4.77;;
12892;SDS011;6514;48.606;9.222;2022-11-20T03:39:03;6.33;;;4.73;;
12892;SDS011;6514;48.606;9.222;2022-11-20T03:41:30;5.60;;;5.10;;
12892;SDS011;6514;48.606;9.222;2022-11-20T03:44:02;7.30;;;4.23;;
12892;SDS011;6514;48.606;9.222;2022-11-20T03:46:30;7.73;;;4.70;;
12892;SDS011;6514;48.606;9.222;2022-11-20T03:48:57;5.27;;;4.73;;
12892;SDS011;6514;48.606;9.222;2022-11-20T03:51:29;4.80;;;4.30;;
12892;SDS011;6514;48.606;9.222;2022-11-20T03:53:58;5.47;;;4.80;;
12892;SDS011;6514;48.606;9.222;2022-11-20T03:56:28;5.97;;;4.50;;
12892;SDS011;6514;48.606;9.222;2022-11-20T03:58:56;7.20;;;4.30;;
12892;SDS011;6514;48.606;9.222;2022-11-20T04:01:24;4.83;;;4.17;;
12892;SDS011;6514;48.606;9.222;2022-11-20T04:03:52;4.40;;;4.00;;
12892;SDS011;6514;48.606;9.222;2022-11-20T04:06:20;5.47;;;4.53;;
12892;SDS011;6514;48.606;9.222;2022-11-20T04:08:50;4.50;;;3.97;;
12892;SDS011;6514;48.606;9.222;2022-11-20T04:11:17;5.37;;;3.80;;
12892;SDS011;6514;48.606;9.222;2022-11-20T04:13:46;4.87;;;4.00;;
12892;SDS011;6514;48.606;9.222;2022-11-20T04:16:14;6.00;;;3.90;;
12892;SDS011;6514;48.606;9.222;2022-11-20T04:18:41;6.53;;;5.47;;
12892;SDS011;6514;48.606;9.222;2022-11-20T04:21:09;5.00;;;4.60;;
12892;SDS011;6514;48.606;9.222;2022-11-20T04:23:36;5.80;;;5.20;;
12892;SDS011;6514;48.606;9.222;2022-11-20T04:26:05;5.23;;;4.73;;
12892;SDS011;6514;48.606;9.222;2022-11-20T04:28:33;4.87;;;4.47;;
12892;SDS011;6514;48.606;9.222;2022-11-20T04:31:01;5.67;;;5.17;;
12892;SDS011;6514;48.606;9.222;2022-11-20T04:33:32;5.90;;;5.20;;
12892;SDS011;6514;48.606;9.222;2022-11-20T04:36:00;6.50;;;5.07;;
12892;SDS011;6514;48.606;9.222;2022-11-20T04:38:28;5.40;;;4.60;;
12892;SDS011;6514;48.606;9.222;2022-11-20T04:40:56;5.07;;;4.27;;
12892;SDS011;6514;48.606;9.222;2022-11-20T04:43:25;5.13;;;4.53;;
12892;SDS011;6514;48.606;9.222;2022-11-20T04:45:52;4.67;;;4.10;;
12892;SDS011;6514;48.606;9.222;2022-11-20T04:48:19;4.13;;;3.73;;
12892;SDS011;6514;48.606;9.222;2022-11-20T04:50:47;3.73;;;3.00;;
12892;SDS011;6514;48.606;9.222;2022-11-20T04:53:13;4.67;;;3.23;;
12892;SDS011;6514;48.606;9.222;2022-11-20T04:55:40;4.67;;;3.30;;
12892;SDS011;6514;48.606;9.222;2022-11-20T04:58:07;3.30;;;3.00;;
12892;SDS011;6514;48.606;9.222;2022-11-20T05:00:36;4.97;;;3.53;;
12892;SDS011;6514;48.606;9.222;2022-11-20T05:03:03;4.30;;;3.77;;
12892;SDS011;6514;48.606;9.222;2022-11-20T05:05:30;3.60;;;3.30;;
12892;SDS011;6514;48.606;9.222;2022-11-20T05:07:58;5.67;;;3.90;;
12892;SDS011;6514;48.606;9.222;2022-11-20T05:10:25;4.30;;;3.27;;
12892;SDS011;6514;48.606;9.222;2022-11-20T05:12:52;3.10;;;2.80;;
12892;SDS011;6514;48.606;9.222;2022-11-20T05:15:19;4.30;;;3.13;;
12892;SDS011;6514;48.606;9.222;2022-11-20T05:17:50;3.13;;;2.83;;
12892;SDS011;6514;48.606;9.222;2022-11-20T05:20:18;3.00;;;2.40;;
12892;SDS011;6514;48.606;9.222;2022-11-20T05:22:45;2.77;;;2.40;;
12892;SDS011;6514;48.606;9.222;2022-11-20T05:25:12;4.00;;;3.37;;
12892;SDS011;6514;48.606;9.222;2022-11-20T05:27:39;3.97;;;3.37;;
12892;SDS011;6514;48.606;9.222;2022-11-20T05:30:06;2.87;;;2.53;;
12892;SDS011;6514;48.606;9.222;2022-11-20T05:32:34;3.43;;;2.57;;
12892;SDS011;6514;48.606;9.222;2022-11-20T05:35:03;2.93;;;2.30;;
12892;SDS011;6514;48.606;9.222;2022-11-20T05:37:30;1.90;;;1.80;;
12892;SDS011;6514;48.606;9.222;2022-11-20T05:39:57;3.73;;;2.30;;
12892;SDS011;6514;48.606;9.222;2022-11-20T05:42:24;2.40;;;2.20;;
12892;SDS011;6514;48.606;9.222;2022-11-20T05:44:57;2.77;;;2.17;;
12892;SDS011;6514;48.606;9.222;2022-11-20T05:47:26;3.87;;;2.17;;
12892;SDS011;6514;48.606;9.222;2022-11-20T05:49:54;3.87;;;2.73;;
12892;SDS011;6514;48.606;9.222;2022-11-20T05:52:22;2.47;;;2.27;;
12892;SDS011;6514;48.606;9.222;2022-11-20T05:54:49;3.00;;;2.20;;
12892;SDS011;6514;48.606;9.222;2022-11-20T05:57:15;3.47;;;1.80;;
12892;SDS011;6514;48.606;9.222;2022-11-20T05:59:42;2.87;;;2.47;;
12892;SDS011;6514;48.606;9.222;2022-11-20T06:02:09;2.60;;;2.40;;
12892;SDS011;6514;48.606;9.222;2022-11-20T06:04:36;2.90;;;2.20;;
12892;SDS011;6514;48.606;9.222;2022-11-20T06:07:04;2.43;;;2.00;;
12892;SDS011;6514;48.606;9.222;2022-11-20T06:09:33;5.10;;;2.57;;
12892;SDS011;6514;48.606;9.222;2022-11-20T06:12:00;3.07;;;2.10;;
12892;SDS011;6514;48.606;9.222;2022-11-20T06:14:27;3.03;;;2.57;;
12892;SDS011;6514;48.606;9.222;2022-11-20T06:16:54;3.17;;;2.23;;
12892;SDS011;6514;48.606;9.222;2022-11-20T06:19:20;3.70;;;2.33;;
12892;SDS011;6514;48.606;9.222;2022-11-20T06:21:47;2.70;;;2.50;;
12892;SDS011;6514;48.606;9.222;2022-11-20T06:24:15;3.20;;;2.43;;
12892;SDS011;6514;48.606;9.222;2022-11-20T06:26:43;2.67;;;2.03;;
12892;SDS011;6514;48.606;9.222;2022-11-20T06:29:10;2.20;;;2.00;;
12892;SDS011;6514;48.606;9.222;2022-11-20T06:31:37;4.03;;;2.30;;
12892;SDS011;6514;48.606;9.222;2022-11-20T06:34:04;5.10;;;2.50;;
12892;SDS011;6514;48.606;9.222;2022-11-20T06:36:31;4.70;;;2.73;;
12892;SDS011;6514;48.606;9.222;2022-11-20T06:38:59;3.43;;;2.50;;
12892;SDS011;6514;48.606;9.222;2022-11-20T06:41:26;2.83;;;2.53;;
12892;SDS011;6514;48.606;9.222;2022-11-20T06:43:54;2.67;;;2.30;;
12892;SDS011;6514;48.606;9.222;2022-11-20T06:46:21;3.23;;;2.80;;
12892;SDS011;6514;48.606;9.222;2022-11-20T06:48:48;2.40;;;2.20;;
12892;SDS011;6514;48.606;9.222;2022-11-20T06:51:16;2.93;;;2.63;;
12892;SDS011;6514;48.606;9.222;2022-11-20T06:53:43;4.93;;;3.67;;
12892;SDS011;6514;48.606;9.222;2022-11-20T06:56:10;3.43;;;3.13;;
12892;SDS011;6514;48.606;9.222;2022-11-20T06:58:37;2.70;;;2.37;;
12892;SDS011;6514;48.606;9.222;2022-11-20T07:01:05;4.63;;;3.40;;
12892;SDS011;6514;48.606;9.222;2022-11-20T07:03:33;2.90;;;2.43;;
12892;SDS011;6514;48.606;9.222;2022-11-20T07:06:01;3.17;;;2.20;;
12892;SDS011;6514;48.606;9.222;2022-11-20T07:08:28;2.33;;;2.10;;
12892;SDS011;6514;48.606;9.222;2022-11-20T07:10:56;3.70;;;3.00;;
12892;SDS011;6514;48.606;9.222;2022-11-20T07:13:24;3.17;;;2.60;;
12892;SDS011;6514;48.606;9.222;2022-11-20T07:15:51;3.00;;;2.60;;
12892;SDS011;6514;48.606;9.222;2022-11-20T07:18:19;2.60;;;2.40;;
12892;SDS011;6514;48.606;9.222;2022-11-20T07:20:46;2.70;;;2.50;;
12892;SDS011;6514;48.606;9.222;2022-11-20T07:23:13;4.97;;;3.10;;
12892;SDS011;6514;48.606;9.222;2022-11-20T07:25:40;3.00;;;2.70;;
12892;SDS011;6514;48.606;9.222;2022-11-20T07:28:07;4.60;;;2.70;;
12892;SDS011;6514;48.606;9.222;2022-11-20T07:30:35;2.37;;;2.17;;
12892;SDS011;6514;48.606;9.222;2022-11-20T07:33:03;3.27;;;2.53;;
12892;SDS011;6514;48.606;9.222;2022-11-20T07:35:31;5.17;;;3.80;;
12892;SDS011;6514;48.606;9.222;2022-11-20T07:37:58;10.60;;;5.77;;
12892;SDS011;6514;48.606;9.222;2022-11-20T07:40:25;11.83;;;6.77;;
12892;SDS011;6514;48.606;9.222;2022-11-20T07:42:53;6.13;;;4.20;;
12892;SDS011;6514;48.606;9.222;2022-11-20T07:45:21;3.97;;;2.47;;
12892;SDS011;6514;48.606;9.222;2022-11-20T07:47:49;4.37;;;3.37;;
12892;SDS011;6514;48.606;9.222;2022-11-20T07:50:18;4.23;;;3.80;;
12892;SDS011;6514;48.606;9.222;2022-11-20T07:52:48;4.33;;;2.60;;
12892;SDS011;6514;48.606;9.222;2022-11-20T07:55:15;2.63;;;2.27;;
12892;SDS011;6514;48.606;9.222;2022-11-20T07:57:42;2.70;;;2.13;;
12892;SDS011;6514;48.606;9.222;2022-11-20T08:00:10;3.07;;;2.20;;
12892;SDS011;6514;48.606;9.222;2022-11-20T08:02:37;2.40;;;2.20;;
12892;SDS011;6514;48.606;9.222;2022-11-20T08:05:05;2.00;;;1.90;;
12892;SDS011;6514;48.606;9.222;2022-11-20T08:07:35;2.80;;;1.90;;
12892;SDS011;6514;48.606;9.222;2022-11-20T08:10:07;2.57;;;1.67;;
12892;SDS011;6514;48.606;9.222;2022-11-20T08:12:36;2.57;;;1.70;;
12892;SDS011;6514;48.606;9.222;2022-11-20T08:15:26;2.73;;;2.00;;
12892;SDS011;6514;48.606;9.222;2022-11-20T08:17:58;2.10;;;1.70;;
12892;SDS011;6514;48.606;9.222;2022-11-20T08:20:25;2.17;;;1.23;;
12892;SDS011;6514;48.606;9.222;2022-11-20T08:22:52;1.70;;;1.60;;
12892;SDS011;6514;48.606;9.222;2022-11-20T08:25:26;2.10;;;1.50;;
12892;SDS011;6514;48.606;9.222;2022-11-20T08:27:53;2.57;;;1.80;;
12892;SDS011;6514;48.606;9.222;2022-11-20T08:30:19;2.20;;;1.53;;
12892;SDS011;6514;48.606;9.222;2022-11-20T08:32:46;2.70;;;1.90;;
12892;SDS011;6514;48.606;9.222;2022-11-20T08:35:13;1.57;;;1.43;;
12892;SDS011;6514;48.606;9.222;2022-11-20T08:37:40;1.97;;;1.40;;
12892;SDS011;6514;48.606;9.222;2022-11-20T08:40:08;1.80;;;1.40;;
12892;SDS011;6514;48.606;9.222;2022-11-20T08:42:45;1.53;;;1.30;;
12892;SDS011;6514;48.606;9.222;2022-11-20T08:45:12;2.50;;;2.10;;
12892;SDS011;6514;48.606;9.222;2022-11-20T08:47:39;1.67;;;1.57;;
12892;SDS011;6514;48.606;9.222;2022-11-20T08:50:07;1.43;;;1.33;;
12892;SDS011;6514;48.606;9.222;2022-11-20T08:52:34;1.27;;;1.17;;
12892;SDS011;6514;48.606;9.222;2022-11-20T08:55:01;2.13;;;1.50;;
12892;SDS011;6514;48.606;9.222;2022-11-20T08:57:31;1.40;;;1.30;;
12892;SDS011;6514;48.606;9.222;2022-11-20T09:00:00;3.50;;;1.70;;
12892;SDS011;6514;48.606;9.222;2022-11-20T09:02:27;1.73;;;1.40;;
12892;SDS011;6514;48.606;9.222;2022-11-20T09:04:54;1.60;;;1.50;;
12892;SDS011;6514;48.606;9.222;2022-11-20T09:07:21;1.53;;;1.43;;
12892;SDS011;6514;48.606;9.222;2022-11-20T09:09:48;1.60;;;1.40;;
12892;SDS011;6514;48.606;9.222;2022-11-20T09:12:15;3.13;;;1.47;;
12892;SDS011;6514;48.606;9.222;2022-11-20T09:14:42;1.80;;;1.50;;
12892;SDS011;6514;48.606;9.222;2022-11-20T09:17:10;1.97;;;1.30;;
12892;SDS011;6514;48.606;9.222;2022-11-20T09:19:39;1.53;;;1.43;;
12892;SDS011;6514;48.606;9.222;2022-11-20T09:22:06;1.43;;;1.30;;
12892;SDS011;6514;48.606;9.222;2022-11-20T09:24:33;1.67;;;1.50;;
12892;SDS011;6514;48.606;9.222;2022-11-20T09:27:03;3.27;;;1.80;;
12892;SDS011;6514;48.606;9.222;2022-11-20T09:29:30;2.17;;;1.87;;
12892;SDS011;6514;48.606;9.222;2022-11-20T09:31:57;1.67;;;1.57;;
12892;SDS011;6514;48.606;9.222;2022-11-20T09:34:25;1.40;;;1.30;;
12892;SDS011;6514;48.606;9.222;2022-11-20T09:36:52;1.43;;;1.33;;
12892;SDS011;6514;48.606;9.222;2022-11-20T09:39:19;1.70;;;1.30;;
12892;SDS011;6514;48.606;9.222;2022-11-20T09:41:51;1.60;;;1.40;;
12892;SDS011;6514;48.606;9.222;2022-11-20T09:44:38;1.37;;;1.27;;
12892;SDS011;6514;48.606;9.222;2022-11-20T09:47:25;1.70;;;1.40;;
12892;SDS011;6514;48.606;9.222;2022-11-20T09:50:05;2.40;;;1.67;;
12892;SDS011;6514;48.606;9.222;2022-11-20T09:52:46;2.73;;;2.00;;
12892;SDS011;6514;48.606;9.222;2022-11-20T09:55:20;2.07;;;1.80;;
12892;SDS011;6514;48.606;9.222;2022-11-20T09:57:48;2.53;;;1.30;;
12892;SDS011;6514;48.606;9.222;2022-11-20T10:00:18;1.43;;;1.20;;
12892;SDS011;6514;48.606;9.222;2022-11-20T10:02:47;1.20;;;0.90;;
12892;SDS011;6514;48.606;9.222;2022-11-20T10:05:20;1.60;;;1.20;;
12892;SDS011;6514;48.606;9.222;2022-11-20T10:07:51;1.20;;;1.10;;
12892;SDS011;6514;48.606;9.222;2022-11-20T10:10:24;2.13;;;1.03;;
12892;SDS011;6514;48.606;9.222;2022-11-20T10:13:02;1.77;;;1.00;;
12892;SDS011;6514;48.606;9.222;2022-11-20T10:15:43;1.67;;;1.03;;
12892;SDS011;6514;48.606;9.222;2022-11-20T10:18:24;1.20;;;1.00;;
12892;SDS011;6514;48.606;9.222;2022-11-20T10:21:05;1.87;;;1.17;;
12892;SDS011;6514;48.606;9.222;2022-11-20T10:23:44;2.53;;;1.30;;
12892;SDS011;6514;48.606;9.222;2022-11-20T10:26:36;1.27;;;1.17;;
12892;SDS011;6514;48.606;9.222;2022-11-20T10:29:10;1.30;;;1.17;;
12892;SDS011;6514;48.606;9.222;2022-11-20T10:31:39;1.57;;;1.20;;
12892;SDS011;6514;48.606;9.222;2022-11-20T10:34:12;2.30;;;1.30;;
12892;SDS011;6514;48.606;9.222;2022-11-20T10:36:49;1.30;;;1.10;;
12892;SDS011;6514;48.606;9.222;2022-11-20T10:39:22;1.20;;;1.10;;
12892;SDS011;6514;48.606;9.222;2022-11-20T10:41:54;0.83;;;0.83;;
12892;SDS011;6514;48.606;9.222;2022-11-20T10:44:26;1.00;;;1.00;;
12892;SDS011;6514;48.606;9.222;2022-11-20T10:47:12;1.73;;;1.20;;
12892;SDS011;6514;48.606;9.222;2022-11-20T10:49:40;1.00;;;0.90;;
12892;SDS011;6514;48.606;9.222;2022-11-20T10:52:11;1.37;;;1.03;;
12892;SDS011;6514;48.606;9.222;2022-11-20T10:54:43;1.17;;;1.07;;
12892;SDS011;6514;48.606;9.222;2022-11-20T10:57:18;2.70;;;1.43;;
12892;SDS011;6514;48.606;9.222;2022-11-20T11:00:01;2.53;;;1.40;;
12892;SDS011;6514;48.606;9.222;2022-11-20T11:02:31;1.33;;;1.00;;
12892;SDS011;6514;48.606;9.222;2022-11-20T11:05:04;1.00;;;0.90;;
12892;SDS011;6514;48.606;9.222;2022-11-20T11:07:45;1.73;;;1.13;;
12892;SDS011;6514;48.606;9.222;2022-11-20T11:10:15;1.03;;;0.90;;
12892;SDS011;6514;48.606;9.222;2022-11-20T11:12:44;2.50;;;1.20;;
12892;SDS011;6514;48.606;9.222;2022-11-20T11:15:24;1.13;;;1.00;;
12892;SDS011;6514;48.606;9.222;2022-11-20T11:17:53;1.10;;;1.00;;
12892;SDS011;6514;48.606;9.222;2022-11-20T11:20:21;1.27;;;0.93;;
12892;SDS011;6514;48.606;9.222;2022-11-20T11:22:50;0.97;;;0.80;;
12892;SDS011;6514;48.606;9.222;2022-11-20T11:25:19;2.10;;;0.77;;
12892;SDS011;6514;48.606;9.222;2022-11-20T11:27:49;1.37;;;1.20;;
12892;SDS011;6514;48.606;9.222;2022-11-20T11:30:18;1.77;;;1.23;;
12892;SDS011;6514;48.606;9.222;2022-11-20T11:32:46;2.30;;;1.20;;
12892;SDS011;6514;48.606;9.222;2022-11-20T11:35:21;1.90;;;0.93;;
12892;SDS011;6514;48.606;9.222;2022-11-20T11:37:51;0.90;;;0.90;;
12892;SDS011;6514;48.606;9.222;2022-11-20T11:40:27;1.30;;;1.10;;
12892;SDS011;6514;48.606;9.222;2022-11-20T11:42:59;1.13;;;1.03;;
12892;SDS011;6514;48.606;9.222;2022-11-20T11:45:28;1.60;;;1.20;;
12892;SDS011;6514;48.606;9.222;2022-11-20T11:47:55;1.73;;;1.07;;
12892;SDS011;6514;48.606;9.222;2022-11-20T11:50:24;1.50;;;1.10;;
12892;SDS011;6514;48.606;9.222;2022-11-20T11:52:58;1.10;;;1.00;;
12892;SDS011;6514;48.606;9.222;2022-11-20T11:55:33;2.57;;;1.40;;
12892;SDS011;6514;48.606;9.222;2022-11-20T11:58:14;1.53;;;1.17;;
12892;SDS011;6514;48.606;9.222;2022-11-20T12:01:01;1.50;;;1.10;;
12892;SDS011;6514;48.606;9.222;2022-11-20T12:03:35;0.90;;;0.90;;
12892;SDS011;6514;48.606;9.222;2022-11-20T12:06:10;0.97;;;0.87;;
12892;SDS011;6514;48.606;9.222;2022-11-20T12:08:42;1.10;;;0.97;;
12892;SDS011;6514;48.606;9.222;2022-11-20T12:11:16;2.83;;;0.90;;
12892;SDS011;6514;48.606;9.222;2022-11-20T12:13:48;0.80;;;0.80;;
12892;SDS011;6514;48.606;9.222;2022-11-20T12:16:19;3.33;;;0.90;;
12892;SDS011;6514;48.606;9.222;2022-11-20T12:18:48;1.40;;;0.60;;
12892;SDS011;6514;48.606;9.222;2022-11-20T12:21:20;2.47;;;0.80;;
12892;SDS011;6514;48.606;9.222;2022-11-20T12:24:10;1.57;;;0.80;;
12892;SDS011;6514;48.606;9.222;2022-11-20T12:26:55;2.40;;;0.90;;
12892;SDS011;6514;48.606;9.222;2022-11-20T12:29:34;1.30;;;1.00;;
12892;SDS011;6514;48.606;9.222;2022-11-20T12:32:32;1.10;;;0.70;;
12892;SDS011;6514;48.606;9.222;2022-11-20T12:35:20;3.07;;;0.90;;
12892;SDS011;6514;48.606;9.222;2022-11-20T12:38:02;1.23;;;0.83;;
12892;SDS011;6514;48.606;9.222;2022-11-20T12:40:48;1.30;;;0.73;;
12892;SDS011;6514;48.606;9.222;2022-11-20T12:43:25;1.17;;;0.60;;
12892;SDS011;6514;48.606;9.222;2022-11-20T12:46:14;0.90;;;0.53;;
12892;SDS011;6514;48.606;9.222;2022-11-20T12:51:51;2.47;;;0.80;;
12892;SDS011;6514;48.606;9.222;2022-11-20T12:54:55;1.90;;;1.03;;
12892;SDS011;6514;48.606;9.222;2022-11-20T12:57:42;2.67;;;0.90;;
12892;SDS011;6514;48.606;9.222;2022-11-20T13:00:16;1.20;;;0.70;;
12892;SDS011;6514;48.606;9.222;2022-11-20T13:05:46;1.27;;;0.80;;
12892;SDS011;6514;48.606;9.222;2022-11-20T13:08:20;1.43;;;0.57;;
12892;SDS011;6514;48.606;9.222;2022-11-20T13:10:52;2.03;;;0.90;;
12892;SDS011;6514;48.606;9.222;2022-11-20T13:13:30;1.67;;;0.80;;
12892;SDS011;6514;48.606;9.222;2022-11-20T13:16:10;1.40;;;1.07;;
12892;SDS011;6514;48.606;9.222;2022-11-20T13:18:43;2.30;;;1.10;;
12892;SDS011;6514;48.606;9.222;2022-11-20T13:21:17;2.30;;;0.70;;
12892;SDS011;6514;48.606;9.222;2022-11-20T13:23:45;1.97;;;1.00;;
12892;SDS011;6514;48.606;9.222;2022-11-20T13:26:14;2.27;;;0.87;;
12892;SDS011;6514;48.606;9.222;2022-11-20T13:28:59;0.80;;;0.60;;
12892;SDS011;6514;48.606;9.222;2022-11-20T13:31:30;1.07;;;0.77;;
12892;SDS011;6514;48.606;9.222;2022-11-20T13:33:59;0.60;;;0.60;;
12892;SDS011;6514;48.606;9.222;2022-11-20T13:36:28;1.50;;;0.70;;
12892;SDS011;6514;48.606;9.222;2022-11-20T13:38:57;1.83;;;0.87;;
12892;SDS011;6514;48.606;9.222;2022-11-20T13:41:28;1.43;;;0.70;;
12892;SDS011;6514;48.606;9.222;2022-11-20T13:44:04;2.50;;;1.20;;
12892;SDS011;6514;48.606;9.222;2022-11-20T13:46:37;1.97;;;0.80;;
12892;SDS011;6514;48.606;9.222;2022-11-20T13:49:09;2.90;;;1.07;;
12892;SDS011;6514;48.606;9.222;2022-11-20T13:51:42;0.97;;;0.87;;
12892;SDS011;6514;48.606;9.222;2022-11-20T13:54:21;1.87;;;0.73;;
12892;SDS011;6514;48.606;9.222;2022-11-20T13:57:22;1.47;;;0.83;;
12892;SDS011;6514;48.606;9.222;2022-11-20T14:00:10;1.60;;;0.93;;
12892;SDS011;6514;48.606;9.222;2022-11-20T14:02:39;1.37;;;0.90;;
12892;SDS011;6514;48.606;9.222;2022-11-20T14:05:11;1.27;;;0.80;;
12892;SDS011;6514;48.606;9.222;2022-11-20T14:07:45;1.43;;;0.70;;
12892;SDS011;6514;48.606;9.222;2022-11-20T14:10:21;2.07;;;0.70;;
12892;SDS011;6514;48.606;9.222;2022-11-20T14:12:50;2.37;;;0.80;;
12892;SDS011;6514;48.606;9.222;2022-11-20T14:15:27;0.80;;;0.50;;
12892;SDS011;6514;48.606;9.222;2022-11-20T14:17:56;1.47;;;0.60;;
12892;SDS011;6514;48.606;9.222;2022-11-20T14:20:25;0.50;;;0.50;;
12892;SDS011;6514;48.606;9.222;2022-11-20T14:22:56;0.80;;;0.70;;
12892;SDS011;6514;48.606;9.222;2022-11-20T14:25:24;1.03;;;0.70;;
12892;SDS011;6514;48.606;9.222;2022-11-20T14:27:53;0.90;;;0.60;;
12892;SDS011;6514;48.606;9.222;2022-11-20T14:30:23;0.90;;;0.60;;
12892;SDS011;6514;48.606;9.222;2022-11-20T14:32:56;1.67;;;0.70;;
12892;SDS011;6514;48.606;9.222;2022-11-20T14:35:34;1.13;;;0.50;;
12892;SDS011;6514;48.606;9.222;2022-11-20T14:38:03;1.43;;;0.73;;
12892;SDS011;6514;48.606;9.222;2022-11-20T14:40:35;1.27;;;0.93;;
12892;SDS011;6514;48.606;9.222;2022-11-20T14:43:15;1.57;;;1.07;;
12892;SDS011;6514;48.606;9.222;2022-11-20T14:45:44;1.30;;;0.80;;
12892;SDS011;6514;48.606;9.222;2022-11-20T14:48:13;0.87;;;0.70;;
12892;SDS011;6514;48.606;9.222;2022-11-20T14:50:44;1.43;;;0.70;;
12892;SDS011;6514;48.606;9.222;2022-11-20T14:53:11;1.63;;;0.70;;
12892;SDS011;6514;48.606;9.222;2022-11-20T14:55:53;2.07;;;0.80;;
12892;SDS011;6514;48.606;9.222;2022-11-20T14:58:22;1.47;;;0.70;;
12892;SDS011;6514;48.606;9.222;2022-11-20T15:00:53;1.47;;;0.80;;
12892;SDS011;6514;48.606;9.222;2022-11-20T15:03:22;2.00;;;0.77;;
12892;SDS011;6514;48.606;9.222;2022-11-20T15:05:56;1.60;;;0.90;;
12892;SDS011;6514;48.606;9.222;2022-11-20T15:08:24;2.43;;;0.83;;
12892;SDS011;6514;48.606;9.222;2022-11-20T15:10:51;1.27;;;0.90;;
12892;SDS011;6514;48.606;9.222;2022-11-20T15:13:23;1.13;;;0.70;;
12892;SDS011;6514;48.606;9.222;2022-11-20T15:15:53;0.97;;;0.80;;
12892;SDS011;6514;48.606;9.222;2022-11-20T15:18:23;1.10;;;0.73;;
12892;SDS011;6514;48.606;9.222;2022-11-20T15:20:54;2.60;;;0.97;;
12892;SDS011;6514;48.606;9.222;2022-11-20T15:23:22;2.67;;;0.77;;
12892;SDS011;6514;48.606;9.222;2022-11-20T15:25:49;1.40;;;1.03;;
12892;SDS011;6514;48.606;9.222;2022-11-20T15:28:18;1.53;;;0.97;;